Erie International Tom Ridge Field
KERI : now visible

Airfield :











YOU CAN JOIN US ON...

 
LOGIN :

Register | Disclaimer

   EN    FR    IT 

 









Legend :    VFR   Marginal VFR   IFR   Intensive IFR   Very Intensive IFR
Visi :
Ceiling :
>= 8 km
>= 3000ft
5 to 8 km
1000 to 3000 ft
1500m to 5 km
500 to 1000 ft
800 to 1500m
200 to 500 ft
< 800m
< 200 ft
Symbols :   Thunderstorms  Fog  Heavy snow  Heavy precipitations  Wind > 20 kt






- Airport Elevation : 733 ft
- IATA code : ERI


KERI - Erie International Tom Ridge Field

CURRENT METAR :
  • 190541Z AUTO 25017G34KT 1 1/2SM -SN BR BKN008 BKN013 OVC031 01/M01 A2968 RMK AO2 PK WND 25034/0537 P0006 T00111011

EXPIRED METARs :
  • 190524Z AUTO 25013G24KT 3/4SM R06/2600VP6000FT -SN BR OVC007 01/M01 A2967 RMK AO2 P0005 T00111006
  • 190508Z AUTO 24011G18KT 1 1/4SM -SN BR BKN008 OVC012 01/M01 A2967 RMK AO2 P0002 T00111006
  • 190459Z AUTO 23007KT 2 1/2SM -SN BR BKN008 OVC011 01/M01 A2967 RMK AO2 P0000 T00111006
  • 190451Z AUTO 24007G21KT 3SM -SN BR SCT009 OVC013 02/M01 A2967 RMK AO2 PK WND 24026/0415 UPE0358SNB0358 SLP055 P0000 T00171006 400561044
  • 190435Z AUTO 25016G25KT 6SM -SN FEW010 BKN014 OVC020 02/M01 A2968 RMK AO2 PK WND 24026/0415 UPE0358SNB0358 P0000 T00221011
  • 190351Z 25015G25KT 10SM UP BKN019 OVC026 03/M02 A2967 RMK AO2 PK WND 27028/0254 UPB17 SLP054 P0000 T00281017
  • 190316Z 25019G26KT 10SM BKN022 BKN027 OVC034 03/M02 A2967 RMK AO2 PK WND 27028/0254 T00281017
  • 190259Z 25018G28KT 10SM SCT024 OVC033 03/M02 A2967 RMK AO2 PK WND 27028/0254 T00281022

TAF KERI
Valid from the 19 at 06:00 until the 20 at 06:00 UTC


190530Z 1906/2006 25010G20KT 5SM -SHSN OVC015
TEMPO 1906/1910 1SM -SHSN BR OVC007
FM191000 26025G40KT 2SM -SHSN OVC015
FM191500 26025G40KT 1SM -SHSN OVC015
FM191900 27025G35KT 3SM -SHSN OVC015
FM192300 30020G30KT 6SM -SHSN OVC025
FM200400 33010G20KT P6SM OVC015



MET'MAP, your aeronautical weather chart ! - Copyright ORBIFLY December 2007 - Disclaimer

ORBIFLY MET'MAP TEAM :

Programming & Development : Alexandra Zaïnal
Concept & original design : Baudouin d'Aumeries
Assistance for programming : Marc-Olivier Méhu
Technical & hardware support : Manuel Goepfert

Contact : metmap@orbifly.com




SOURCES & CREDITS :

   NOAA       Earth
Advisory